sensor_id;sensor_type;location;lat;lon;timestamp;P1;durP1;ratioP1;P2;durP2;ratioP2
30681;SDS011;17439;48.092;11.842;2023-04-24T00:01:32;3.60;;;0.63;;
30681;SDS011;17439;48.092;11.842;2023-04-24T00:03:59;0.73;;;0.55;;
30681;SDS011;17439;48.092;11.842;2023-04-24T00:06:26;0.65;;;0.55;;
30681;SDS011;17439;48.092;11.842;2023-04-24T00:08:53;0.80;;;0.47;;
30681;SDS011;17439;48.092;11.842;2023-04-24T00:11:19;1.13;;;0.70;;
30681;SDS011;17439;48.092;11.842;2023-04-24T00:13:46;1.30;;;0.70;;
30681;SDS011;17439;48.092;11.842;2023-04-24T00:16:12;0.77;;;0.50;;
30681;SDS011;17439;48.092;11.842;2023-04-24T00:18:39;1.02;;;0.40;;
30681;SDS011;17439;48.092;11.842;2023-04-24T00:21:06;0.47;;;0.35;;
30681;SDS011;17439;48.092;11.842;2023-04-24T00:23:32;0.47;;;0.40;;
30681;SDS011;17439;48.092;11.842;2023-04-24T00:25:59;1.00;;;0.77;;
30681;SDS011;17439;48.092;11.842;2023-04-24T00:28:26;1.20;;;0.85;;
30681;SDS011;17439;48.092;11.842;2023-04-24T00:30:53;0.55;;;0.55;;
30681;SDS011;17439;48.092;11.842;2023-04-24T00:33:20;1.30;;;0.37;;
30681;SDS011;17439;48.092;11.842;2023-04-24T00:35:46;0.55;;;0.50;;
30681;SDS011;17439;48.092;11.842;2023-04-24T00:38:13;2.10;;;0.40;;
30681;SDS011;17439;48.092;11.842;2023-04-24T00:40:41;1.30;;;0.60;;
30681;SDS011;17439;48.092;11.842;2023-04-24T00:43:07;1.05;;;0.30;;
30681;SDS011;17439;48.092;11.842;2023-04-24T00:45:35;0.70;;;0.55;;
30681;SDS011;17439;48.092;11.842;2023-04-24T00:48:02;0.63;;;0.60;;
30681;SDS011;17439;48.092;11.842;2023-04-24T00:50:30;0.47;;;0.40;;
30681;SDS011;17439;48.092;11.842;2023-04-24T00:52:57;1.30;;;0.40;;
30681;SDS011;17439;48.092;11.842;2023-04-24T00:55:24;0.30;;;0.30;;
30681;SDS011;17439;48.092;11.842;2023-04-24T00:57:52;0.63;;;0.40;;
30681;SDS011;17439;48.092;11.842;2023-04-24T01:00:19;1.20;;;0.60;;
30681;SDS011;17439;48.092;11.842;2023-04-24T01:02:46;0.68;;;0.60;;
30681;SDS011;17439;48.092;11.842;2023-04-24T01:05:14;0.30;;;0.23;;
30681;SDS011;17439;48.092;11.842;2023-04-24T01:07:43;0.77;;;0.43;;
30681;SDS011;17439;48.092;11.842;2023-04-24T01:10:11;0.32;;;0.20;;
30681;SDS011;17439;48.092;11.842;2023-04-24T01:12:39;4.50;;;0.95;;
30681;SDS011;17439;48.092;11.842;2023-04-24T01:15:06;2.92;;;0.40;;
30681;SDS011;17439;48.092;11.842;2023-04-24T01:17:34;0.10;;;0.10;;
30681;SDS011;17439;48.092;11.842;2023-04-24T01:20:01;0.98;;;0.30;;
30681;SDS011;17439;48.092;11.842;2023-04-24T01:22:30;0.40;;;0.30;;
30681;SDS011;17439;48.092;11.842;2023-04-24T01:24:56;0.52;;;0.25;;
30681;SDS011;17439;48.092;11.842;2023-04-24T01:27:23;0.43;;;0.20;;
30681;SDS011;17439;48.092;11.842;2023-04-24T01:29:50;0.45;;;0.30;;
30681;SDS011;17439;48.092;11.842;2023-04-24T01:32:17;0.32;;;0.20;;
30681;SDS011;17439;48.092;11.842;2023-04-24T01:34:44;0.13;;;0.13;;
30681;SDS011;17439;48.092;11.842;2023-04-24T01:37:11;0.40;;;0.23;;
30681;SDS011;17439;48.092;11.842;2023-04-24T01:39:38;0.20;;;0.20;;
30681;SDS011;17439;48.092;11.842;2023-04-24T01:42:05;1.00;;;0.20;;
30681;SDS011;17439;48.092;11.842;2023-04-24T01:44:32;1.73;;;0.20;;
30681;SDS011;17439;48.092;11.842;2023-04-24T01:47:00;4.00;;;0.40;;
30681;SDS011;17439;48.092;11.842;2023-04-24T01:49:29;0.50;;;0.20;;
30681;SDS011;17439;48.092;11.842;2023-04-24T01:51:55;0.22;;;0.22;;
30681;SDS011;17439;48.092;11.842;2023-04-24T01:54:22;0.45;;;0.28;;
30681;SDS011;17439;48.092;11.842;2023-04-24T01:56:49;0.25;;;0.15;;
30681;SDS011;17439;48.092;11.842;2023-04-24T01:59:15;1.90;;;0.25;;
30681;SDS011;17439;48.092;11.842;2023-04-24T02:04:10;0.47;;;0.20;;
30681;SDS011;17439;48.092;11.842;2023-04-24T02:06:37;0.40;;;0.20;;
30681;SDS011;17439;48.092;11.842;2023-04-24T02:09:04;0.55;;;0.20;;
30681;SDS011;17439;48.092;11.842;2023-04-24T02:11:31;0.30;;;0.30;;
30681;SDS011;17439;48.092;11.842;2023-04-24T02:13:58;0.38;;;0.20;;
30681;SDS011;17439;48.092;11.842;2023-04-24T02:16:25;1.17;;;0.28;;
30681;SDS011;17439;48.092;11.842;2023-04-24T02:18:51;0.10;;;0.10;;
30681;SDS011;17439;48.092;11.842;2023-04-24T02:21:18;0.10;;;0.10;;
30681;SDS011;17439;48.092;11.842;2023-04-24T02:23:45;0.55;;;0.10;;
30681;SDS011;17439;48.092;11.842;2023-04-24T02:26:12;0.82;;;0.20;;
30681;SDS011;17439;48.092;11.842;2023-04-24T02:28:39;0.50;;;0.20;;
30681;SDS011;17439;48.092;11.842;2023-04-24T02:31:05;0.10;;;0.10;;
30681;SDS011;17439;48.092;11.842;2023-04-24T02:33:32;0.20;;;0.20;;
30681;SDS011;17439;48.092;11.842;2023-04-24T02:35:59;0.73;;;0.35;;
30681;SDS011;17439;48.092;11.842;2023-04-24T02:38:26;0.55;;;0.30;;
30681;SDS011;17439;48.092;11.842;2023-04-24T02:40:53;0.22;;;0.13;;
30681;SDS011;17439;48.092;11.842;2023-04-24T02:43:19;0.22;;;0.20;;
30681;SDS011;17439;48.092;11.842;2023-04-24T02:45:46;0.35;;;0.30;;
30681;SDS011;17439;48.092;11.842;2023-04-24T02:48:13;0.15;;;0.00;;
30681;SDS011;17439;48.092;11.842;2023-04-24T02:50:40;0.77;;;0.17;;
30681;SDS011;17439;48.092;11.842;2023-04-24T02:53:06;0.43;;;0.25;;
30681;SDS011;17439;48.092;11.842;2023-04-24T02:55:33;1.30;;;0.20;;
30681;SDS011;17439;48.092;11.842;2023-04-24T02:58:00;2.47;;;0.73;;
30681;SDS011;17439;48.092;11.842;2023-04-24T03:00:26;0.57;;;0.10;;
30681;SDS011;17439;48.092;11.842;2023-04-24T03:02:53;0.20;;;0.20;;
30681;SDS011;17439;48.092;11.842;2023-04-24T03:05:20;1.08;;;0.20;;
30681;SDS011;17439;48.092;11.842;2023-04-24T03:07:47;0.30;;;0.20;;
30681;SDS011;17439;48.092;11.842;2023-04-24T03:10:13;0.50;;;0.30;;
30681;SDS011;17439;48.092;11.842;2023-04-24T03:12:40;0.10;;;0.10;;
30681;SDS011;17439;48.092;11.842;2023-04-24T03:15:07;0.95;;;0.22;;
30681;SDS011;17439;48.092;11.842;2023-04-24T03:17:36;1.65;;;0.17;;
30681;SDS011;17439;48.092;11.842;2023-04-24T03:20:03;0.10;;;0.10;;
30681;SDS011;17439;48.092;11.842;2023-04-24T03:22:31;2.90;;;0.47;;
30681;SDS011;17439;48.092;11.842;2023-04-24T03:24:58;0.45;;;0.20;;
30681;SDS011;17439;48.092;11.842;2023-04-24T03:27:25;0.85;;;0.50;;
30681;SDS011;17439;48.092;11.842;2023-04-24T03:29:55;0.88;;;0.10;;
30681;SDS011;17439;48.092;11.842;2023-04-24T03:32:28;1.27;;;0.65;;
30681;SDS011;17439;48.092;11.842;2023-04-24T03:34:55;0.22;;;0.20;;
30681;SDS011;17439;48.092;11.842;2023-04-24T03:37:22;0.20;;;0.20;;
30681;SDS011;17439;48.092;11.842;2023-04-24T03:40:00;0.32;;;0.20;;
30681;SDS011;17439;48.092;11.842;2023-04-24T03:44:55;1.47;;;0.20;;
30681;SDS011;17439;48.092;11.842;2023-04-24T03:47:26;1.30;;;0.40;;
30681;SDS011;17439;48.092;11.842;2023-04-24T03:49:56;0.20;;;0.10;;
30681;SDS011;17439;48.092;11.842;2023-04-24T03:52:23;0.25;;;0.15;;
30681;SDS011;17439;48.092;11.842;2023-04-24T03:54:50;0.30;;;0.30;;
30681;SDS011;17439;48.092;11.842;2023-04-24T03:57:17;0.22;;;0.22;;
30681;SDS011;17439;48.092;11.842;2023-04-24T03:59:56;1.35;;;0.20;;
30681;SDS011;17439;48.092;11.842;2023-04-24T04:04:51;0.17;;;0.10;;
30681;SDS011;17439;48.092;11.842;2023-04-24T04:07:18;1.15;;;0.30;;
30681;SDS011;17439;48.092;11.842;2023-04-24T04:09:45;0.55;;;0.20;;
30681;SDS011;17439;48.092;11.842;2023-04-24T04:12:12;0.20;;;0.20;;
30681;SDS011;17439;48.092;11.842;2023-04-24T04:14:39;0.32;;;0.32;;
30681;SDS011;17439;48.092;11.842;2023-04-24T04:17:06;1.50;;;0.20;;
30681;SDS011;17439;48.092;11.842;2023-04-24T04:19:33;1.33;;;0.20;;
30681;SDS011;17439;48.092;11.842;2023-04-24T04:22:00;0.75;;;0.63;;
30681;SDS011;17439;48.092;11.842;2023-04-24T04:24:36;0.25;;;0.20;;
30681;SDS011;17439;48.092;11.842;2023-04-24T04:27:03;0.95;;;0.65;;
30681;SDS011;17439;48.092;11.842;2023-04-24T04:29:35;0.20;;;0.13;;
30681;SDS011;17439;48.092;11.842;2023-04-24T04:32:06;0.50;;;0.20;;
30681;SDS011;17439;48.092;11.842;2023-04-24T04:34:33;0.28;;;0.20;;
30681;SDS011;17439;48.092;11.842;2023-04-24T04:37:00;0.40;;;0.20;;
30681;SDS011;17439;48.092;11.842;2023-04-24T04:39:45;1.98;;;0.40;;
30681;SDS011;17439;48.092;11.842;2023-04-24T04:42:19;1.55;;;0.25;;
30681;SDS011;17439;48.092;11.842;2023-04-24T04:44:45;0.65;;;0.10;;
30681;SDS011;17439;48.092;11.842;2023-04-24T04:47:17;0.25;;;0.17;;
30681;SDS011;17439;48.092;11.842;2023-04-24T04:49:44;0.30;;;0.20;;
30681;SDS011;17439;48.092;11.842;2023-04-24T04:52:17;0.45;;;0.35;;
30681;SDS011;17439;48.092;11.842;2023-04-24T04:54:48;1.02;;;0.38;;
30681;SDS011;17439;48.092;11.842;2023-04-24T04:57:15;1.10;;;0.50;;
30681;SDS011;17439;48.092;11.842;2023-04-24T04:59:43;0.40;;;0.20;;
30681;SDS011;17439;48.092;11.842;2023-04-24T05:02:17;1.85;;;0.20;;
30681;SDS011;17439;48.092;11.842;2023-04-24T05:04:45;0.50;;;0.30;;
30681;SDS011;17439;48.092;11.842;2023-04-24T05:07:15;1.92;;;0.30;;
30681;SDS011;17439;48.092;11.842;2023-04-24T05:09:47;0.50;;;0.10;;
30681;SDS011;17439;48.092;11.842;2023-04-24T05:12:14;1.02;;;0.30;;
30681;SDS011;17439;48.092;11.842;2023-04-24T05:14:48;0.60;;;0.20;;
30681;SDS011;17439;48.092;11.842;2023-04-24T05:17:15;1.10;;;0.20;;
30681;SDS011;17439;48.092;11.842;2023-04-24T05:19:43;0.43;;;0.20;;
30681;SDS011;17439;48.092;11.842;2023-04-24T05:22:11;1.25;;;0.30;;
30681;SDS011;17439;48.092;11.842;2023-04-24T05:24:46;0.30;;;0.30;;
30681;SDS011;17439;48.092;11.842;2023-04-24T05:27:29;0.35;;;0.17;;
30681;SDS011;17439;48.092;11.842;2023-04-24T05:29:56;0.25;;;0.20;;
30681;SDS011;17439;48.092;11.842;2023-04-24T05:32:23;0.45;;;0.22;;
30681;SDS011;17439;48.092;11.842;2023-04-24T05:34:50;0.20;;;0.20;;
30681;SDS011;17439;48.092;11.842;2023-04-24T05:37:16;0.28;;;0.28;;
30681;SDS011;17439;48.092;11.842;2023-04-24T05:39:43;0.28;;;0.28;;
30681;SDS011;17439;48.092;11.842;2023-04-24T05:42:10;0.55;;;0.20;;
30681;SDS011;17439;48.092;11.842;2023-04-24T05:44:37;0.13;;;0.08;;
30681;SDS011;17439;48.092;11.842;2023-04-24T05:47:03;1.25;;;0.17;;
30681;SDS011;17439;48.092;11.842;2023-04-24T05:49:31;1.23;;;0.40;;
30681;SDS011;17439;48.092;11.842;2023-04-24T05:51:57;0.77;;;0.20;;
30681;SDS011;17439;48.092;11.842;2023-04-24T05:54:24;0.35;;;0.20;;
30681;SDS011;17439;48.092;11.842;2023-04-24T05:56:51;1.85;;;0.28;;
30681;SDS011;17439;48.092;11.842;2023-04-24T05:59:29;1.30;;;0.52;;
30681;SDS011;17439;48.092;11.842;2023-04-24T06:01:57;1.10;;;0.50;;
30681;SDS011;17439;48.092;11.842;2023-04-24T06:04:24;0.20;;;0.20;;
30681;SDS011;17439;48.092;11.842;2023-04-24T06:06:51;1.67;;;0.30;;
30681;SDS011;17439;48.092;11.842;2023-04-24T06:09:18;2.10;;;0.20;;
30681;SDS011;17439;48.092;11.842;2023-04-24T06:11:45;0.63;;;0.15;;
30681;SDS011;17439;48.092;11.842;2023-04-24T06:17:05;0.10;;;0.10;;
30681;SDS011;17439;48.092;11.842;2023-04-24T06:19:38;0.60;;;0.15;;
30681;SDS011;17439;48.092;11.842;2023-04-24T06:22:05;1.75;;;0.25;;
30681;SDS011;17439;48.092;11.842;2023-04-24T06:24:35;2.80;;;0.52;;
30681;SDS011;17439;48.092;11.842;2023-04-24T06:27:02;0.28;;;0.28;;
30681;SDS011;17439;48.092;11.842;2023-04-24T06:29:29;0.40;;;0.20;;
30681;SDS011;17439;48.092;11.842;2023-04-24T06:31:55;0.55;;;0.35;;
30681;SDS011;17439;48.092;11.842;2023-04-24T06:34:22;0.73;;;0.10;;
30681;SDS011;17439;48.092;11.842;2023-04-24T06:36:49;0.68;;;0.20;;
30681;SDS011;17439;48.092;11.842;2023-04-24T06:39:15;1.33;;;0.20;;
30681;SDS011;17439;48.092;11.842;2023-04-24T06:41:42;0.10;;;0.08;;
30681;SDS011;17439;48.092;11.842;2023-04-24T06:44:17;0.40;;;0.10;;
30681;SDS011;17439;48.092;11.842;2023-04-24T06:46:44;1.35;;;0.20;;
30681;SDS011;17439;48.092;11.842;2023-04-24T06:49:10;1.35;;;0.30;;
30681;SDS011;17439;48.092;11.842;2023-04-24T06:51:37;1.73;;;0.40;;
30681;SDS011;17439;48.092;11.842;2023-04-24T06:54:04;0.57;;;0.35;;
30681;SDS011;17439;48.092;11.842;2023-04-24T06:56:30;0.70;;;0.30;;
30681;SDS011;17439;48.092;11.842;2023-04-24T06:58:57;2.38;;;0.65;;
30681;SDS011;17439;48.092;11.842;2023-04-24T07:01:24;0.10;;;0.10;;
30681;SDS011;17439;48.092;11.842;2023-04-24T07:03:50;0.13;;;0.10;;
30681;SDS011;17439;48.092;11.842;2023-04-24T07:06:17;0.52;;;0.20;;
30681;SDS011;17439;48.092;11.842;2023-04-24T07:08:44;0.63;;;0.13;;
30681;SDS011;17439;48.092;11.842;2023-04-24T07:11:10;0.60;;;0.20;;
30681;SDS011;17439;48.092;11.842;2023-04-24T07:13:37;0.17;;;0.10;;
30681;SDS011;17439;48.092;11.842;2023-04-24T07:16:04;2.10;;;0.15;;
30681;SDS011;17439;48.092;11.842;2023-04-24T07:18:31;1.73;;;0.40;;
30681;SDS011;17439;48.092;11.842;2023-04-24T07:20:58;0.13;;;0.10;;
30681;SDS011;17439;48.092;11.842;2023-04-24T07:23:24;0.00;;;0.00;;
30681;SDS011;17439;48.092;11.842;2023-04-24T07:25:51;0.40;;;0.10;;
30681;SDS011;17439;48.092;11.842;2023-04-24T07:28:18;0.85;;;0.40;;
30681;SDS011;17439;48.092;11.842;2023-04-24T07:30:44;0.65;;;0.20;;
30681;SDS011;17439;48.092;11.842;2023-04-24T07:33:11;0.25;;;0.20;;
30681;SDS011;17439;48.092;11.842;2023-04-24T07:35:38;0.20;;;0.20;;
30681;SDS011;17439;48.092;11.842;2023-04-24T07:38:04;0.30;;;0.20;;
30681;SDS011;17439;48.092;11.842;2023-04-24T07:40:31;0.40;;;0.20;;
30681;SDS011;17439;48.092;11.842;2023-04-24T07:42:58;0.10;;;0.10;;
30681;SDS011;17439;48.092;11.842;2023-04-24T07:45:25;0.20;;;0.10;;
30681;SDS011;17439;48.092;11.842;2023-04-24T07:47:52;0.22;;;0.10;;
30681;SDS011;17439;48.092;11.842;2023-04-24T07:50:19;0.30;;;0.20;;
30681;SDS011;17439;48.092;11.842;2023-04-24T07:52:46;0.10;;;0.10;;
30681;SDS011;17439;48.092;11.842;2023-04-24T07:55:12;0.08;;;0.08;;
30681;SDS011;17439;48.092;11.842;2023-04-24T07:57:39;0.10;;;0.10;;
30681;SDS011;17439;48.092;11.842;2023-04-24T08:00:06;3.50;;;0.45;;
30681;SDS011;17439;48.092;11.842;2023-04-24T08:02:39;0.10;;;0.10;;
30681;SDS011;17439;48.092;11.842;2023-04-24T08:05:06;0.32;;;0.20;;
30681;SDS011;17439;48.092;11.842;2023-04-24T08:07:33;0.93;;;0.17;;
30681;SDS011;17439;48.092;11.842;2023-04-24T08:10:00;0.40;;;0.10;;
30681;SDS011;17439;48.092;11.842;2023-04-24T08:12:28;1.58;;;0.25;;
30681;SDS011;17439;48.092;11.842;2023-04-24T08:14:55;1.17;;;0.13;;
30681;SDS011;17439;48.092;11.842;2023-04-24T08:17:22;0.28;;;0.25;;
30681;SDS011;17439;48.092;11.842;2023-04-24T08:19:48;2.85;;;0.35;;
30681;SDS011;17439;48.092;11.842;2023-04-24T08:22:18;0.93;;;0.20;;
30681;SDS011;17439;48.092;11.842;2023-04-24T08:24:44;0.45;;;0.10;;
30681;SDS011;17439;48.092;11.842;2023-04-24T08:27:11;0.38;;;0.10;;
30681;SDS011;17439;48.092;11.842;2023-04-24T08:29:40;0.50;;;0.30;;
30681;SDS011;17439;48.092;11.842;2023-04-24T08:32:07;0.25;;;0.10;;
30681;SDS011;17439;48.092;11.842;2023-04-24T08:34:34;0.00;;;0.00;;
30681;SDS011;17439;48.092;11.842;2023-04-24T08:37:01;0.75;;;0.10;;
30681;SDS011;17439;48.092;11.842;2023-04-24T08:39:28;0.30;;;0.10;;
30681;SDS011;17439;48.092;11.842;2023-04-24T08:41:55;0.20;;;0.08;;
30681;SDS011;17439;48.092;11.842;2023-04-24T08:44:22;0.63;;;0.20;;
30681;SDS011;17439;48.092;11.842;2023-04-24T08:46:49;0.10;;;0.10;;
30681;SDS011;17439;48.092;11.842;2023-04-24T08:49:16;0.30;;;0.17;;
30681;SDS011;17439;48.092;11.842;2023-04-24T08:51:44;1.90;;;0.20;;
30681;SDS011;17439;48.092;11.842;2023-04-24T08:54:12;0.10;;;0.10;;
30681;SDS011;17439;48.092;11.842;2023-04-24T08:56:39;0.60;;;0.20;;
30681;SDS011;17439;48.092;11.842;2023-04-24T08:59:07;1.10;;;0.20;;
30681;SDS011;17439;48.092;11.842;2023-04-24T09:01:35;0.43;;;0.17;;
30681;SDS011;17439;48.092;11.842;2023-04-24T09:04:04;0.13;;;0.10;;
30681;SDS011;17439;48.092;11.842;2023-04-24T09:06:31;1.50;;;0.30;;
30681;SDS011;17439;48.092;11.842;2023-04-24T09:09:00;0.52;;;0.50;;
30681;SDS011;17439;48.092;11.842;2023-04-24T09:11:27;1.20;;;0.50;;
30681;SDS011;17439;48.092;11.842;2023-04-24T09:13:54;4.70;;;0.55;;
30681;SDS011;17439;48.092;11.842;2023-04-24T09:16:20;0.35;;;0.35;;
30681;SDS011;17439;48.092;11.842;2023-04-24T09:18:47;0.98;;;0.40;;
30681;SDS011;17439;48.092;11.842;2023-04-24T09:21:14;0.50;;;0.47;;
30681;SDS011;17439;48.092;11.842;2023-04-24T09:23:41;1.00;;;0.35;;
30681;SDS011;17439;48.092;11.842;2023-04-24T09:26:08;2.40;;;0.68;;
30681;SDS011;17439;48.092;11.842;2023-04-24T09:31:12;2.33;;;0.50;;
30681;SDS011;17439;48.092;11.842;2023-04-24T09:33:40;1.05;;;0.65;;
30681;SDS011;17439;48.092;11.842;2023-04-24T09:36:19;1.10;;;0.60;;
30681;SDS011;17439;48.092;11.842;2023-04-24T09:38:53;1.15;;;0.73;;
30681;SDS011;17439;48.092;11.842;2023-04-24T09:41:24;1.35;;;0.82;;
30681;SDS011;17439;48.092;11.842;2023-04-24T09:43:53;1.45;;;0.65;;
30681;SDS011;17439;48.092;11.842;2023-04-24T09:46:20;1.88;;;0.63;;
30681;SDS011;17439;48.092;11.842;2023-04-24T09:48:47;1.85;;;0.52;;
30681;SDS011;17439;48.092;11.842;2023-04-24T09:51:14;0.98;;;0.55;;
30681;SDS011;17439;48.092;11.842;2023-04-24T09:53:45;0.43;;;0.30;;
30681;SDS011;17439;48.092;11.842;2023-04-24T09:56:17;1.08;;;0.38;;
30681;SDS011;17439;48.092;11.842;2023-04-24T09:58:43;3.22;;;0.47;;
30681;SDS011;17439;48.092;11.842;2023-04-24T10:01:12;1.90;;;0.40;;
30681;SDS011;17439;48.092;11.842;2023-04-24T10:03:39;0.50;;;0.50;;
30681;SDS011;17439;48.092;11.842;2023-04-24T10:06:11;0.55;;;0.43;;
30681;SDS011;17439;48.092;11.842;2023-04-24T10:11:04;0.88;;;0.60;;
30681;SDS011;17439;48.092;11.842;2023-04-24T10:13:31;0.40;;;0.40;;
30681;SDS011;17439;48.092;11.842;2023-04-24T10:15:59;0.65;;;0.35;;
30681;SDS011;17439;48.092;11.842;2023-04-24T10:18:27;1.17;;;0.70;;
30681;SDS011;17439;48.092;11.842;2023-04-24T10:20:54;0.93;;;0.57;;
30681;SDS011;17439;48.092;11.842;2023-04-24T10:23:21;0.63;;;0.40;;
30681;SDS011;17439;48.092;11.842;2023-04-24T10:25:48;0.47;;;0.40;;
30681;SDS011;17439;48.092;11.842;2023-04-24T10:28:17;0.73;;;0.40;;
30681;SDS011;17439;48.092;11.842;2023-04-24T10:30:45;0.47;;;0.47;;
30681;SDS011;17439;48.092;11.842;2023-04-24T10:33:12;0.40;;;0.40;;
30681;SDS011;17439;48.092;11.842;2023-04-24T10:35:44;3.17;;;0.88;;
30681;SDS011;17439;48.092;11.842;2023-04-24T10:38:13;0.68;;;0.60;;
30681;SDS011;17439;48.092;11.842;2023-04-24T10:40:42;1.48;;;0.93;;
30681;SDS011;17439;48.092;11.842;2023-04-24T10:43:09;0.85;;;0.57;;
30681;SDS011;17439;48.092;11.842;2023-04-24T10:45:36;0.73;;;0.65;;
30681;SDS011;17439;48.092;11.842;2023-04-24T10:48:04;0.70;;;0.68;;
30681;SDS011;17439;48.092;11.842;2023-04-24T10:50:43;0.88;;;0.63;;
30681;SDS011;17439;48.092;11.842;2023-04-24T10:53:17;1.35;;;0.50;;
30681;SDS011;17439;48.092;11.842;2023-04-24T10:58:18;1.20;;;0.60;;
30681;SDS011;17439;48.092;11.842;2023-04-24T11:00:55;1.50;;;0.70;;
30681;SDS011;17439;48.092;11.842;2023-04-24T11:08:30;1.88;;;0.38;;
30681;SDS011;17439;48.092;11.842;2023-04-24T11:11:11;0.75;;;0.57;;
30681;SDS011;17439;48.092;11.842;2023-04-24T11:16:25;1.70;;;0.52;;
30681;SDS011;17439;48.092;11.842;2023-04-24T11:21:42;0.20;;;0.20;;
30681;SDS011;17439;48.092;11.842;2023-04-24T11:34:45;2.30;;;0.60;;
30681;SDS011;17439;48.092;11.842;2023-04-24T11:37:13;0.63;;;0.47;;
30681;SDS011;17439;48.092;11.842;2023-04-24T11:39:40;0.35;;;0.30;;
30681;SDS011;17439;48.092;11.842;2023-04-24T11:42:07;1.38;;;0.80;;
30681;SDS011;17439;48.092;11.842;2023-04-24T11:44:35;1.02;;;0.60;;
30681;SDS011;17439;48.092;11.842;2023-04-24T11:47:04;0.90;;;0.67;;
30681;SDS011;17439;48.092;11.842;2023-04-24T11:49:31;2.53;;;1.08;;
30681;SDS011;17439;48.092;11.842;2023-04-24T11:51:59;2.65;;;0.57;;
30681;SDS011;17439;48.092;11.842;2023-04-24T11:54:26;1.90;;;0.75;;
30681;SDS011;17439;48.092;11.842;2023-04-24T11:56:53;1.90;;;0.77;;
30681;SDS011;17439;48.092;11.842;2023-04-24T11:59:20;4.00;;;1.00;;
30681;SDS011;17439;48.092;11.842;2023-04-24T12:01:47;1.05;;;0.77;;
30681;SDS011;17439;48.092;11.842;2023-04-24T12:04:14;2.47;;;1.10;;
30681;SDS011;17439;48.092;11.842;2023-04-24T12:09:28;1.05;;;0.95;;
30681;SDS011;17439;48.092;11.842;2023-04-24T12:11:55;1.20;;;0.80;;
30681;SDS011;17439;48.092;11.842;2023-04-24T12:14:23;3.63;;;0.75;;
30681;SDS011;17439;48.092;11.842;2023-04-24T12:16:50;1.67;;;0.98;;
30681;SDS011;17439;48.092;11.842;2023-04-24T12:19:21;3.60;;;0.98;;
30681;SDS011;17439;48.092;11.842;2023-04-24T12:22:01;0.98;;;0.60;;
30681;SDS011;17439;48.092;11.842;2023-04-24T12:24:30;0.82;;;0.60;;
30681;SDS011;17439;48.092;11.842;2023-04-24T12:26:57;1.03;;;0.60;;
30681;SDS011;17439;48.092;11.842;2023-04-24T12:29:24;1.90;;;0.70;;
30681;SDS011;17439;48.092;11.842;2023-04-24T12:31:51;1.27;;;0.82;;
30681;SDS011;17439;48.092;11.842;2023-04-24T12:34:18;2.10;;;0.50;;
30681;SDS011;17439;48.092;11.842;2023-04-24T12:36:46;1.85;;;0.52;;
30681;SDS011;17439;48.092;11.842;2023-04-24T12:39:14;2.72;;;0.70;;
30681;SDS011;17439;48.092;11.842;2023-04-24T12:42:25;0.90;;;0.60;;
30681;SDS011;17439;48.092;11.842;2023-04-24T12:44:37;0.95;;;0.63;;
30681;SDS011;17439;48.092;11.842;2023-04-24T12:47:04;1.42;;;0.55;;
30681;SDS011;17439;48.092;11.842;2023-04-24T12:49:31;0.98;;;0.70;;
30681;SDS011;17439;48.092;11.842;2023-04-24T12:51:58;1.58;;;0.40;;
30681;SDS011;17439;48.092;11.842;2023-04-24T12:54:24;2.03;;;0.45;;
30681;SDS011;17439;48.092;11.842;2023-04-24T12:56:51;2.25;;;0.60;;
30681;SDS011;17439;48.092;11.842;2023-04-24T12:59:18;1.20;;;0.50;;
30681;SDS011;17439;48.092;11.842;2023-04-24T13:01:45;1.88;;;0.70;;
30681;SDS011;17439;48.092;11.842;2023-04-24T13:04:11;3.13;;;0.90;;
30681;SDS011;17439;48.092;11.842;2023-04-24T13:06:38;1.23;;;0.82;;
30681;SDS011;17439;48.092;11.842;2023-04-24T13:09:05;0.77;;;0.50;;
30681;SDS011;17439;48.092;11.842;2023-04-24T13:11:31;1.05;;;0.70;;
30681;SDS011;17439;48.092;11.842;2023-04-24T13:13:58;1.77;;;0.60;;
30681;SDS011;17439;48.092;11.842;2023-04-24T13:16:25;1.52;;;0.70;;
30681;SDS011;17439;48.092;11.842;2023-04-24T13:18:52;0.98;;;0.65;;
30681;SDS011;17439;48.092;11.842;2023-04-24T13:21:18;0.70;;;0.55;;
30681;SDS011;17439;48.092;11.842;2023-04-24T13:23:45;1.35;;;0.93;;
30681;SDS011;17439;48.092;11.842;2023-04-24T13:26:12;1.83;;;1.30;;
30681;SDS011;17439;48.092;11.842;2023-04-24T13:28:38;2.03;;;0.82;;
30681;SDS011;17439;48.092;11.842;2023-04-24T13:31:05;0.82;;;0.65;;
30681;SDS011;17439;48.092;11.842;2023-04-24T13:33:32;3.17;;;1.35;;
30681;SDS011;17439;48.092;11.842;2023-04-24T13:35:59;2.38;;;1.33;;
30681;SDS011;17439;48.092;11.842;2023-04-24T13:38:25;1.85;;;0.82;;
30681;SDS011;17439;48.092;11.842;2023-04-24T13:40:52;1.15;;;0.60;;
30681;SDS011;17439;48.092;11.842;2023-04-24T13:43:18;2.20;;;1.15;;
30681;SDS011;17439;48.092;11.842;2023-04-24T13:45:45;1.60;;;0.80;;
30681;SDS011;17439;48.092;11.842;2023-04-24T13:48:12;1.75;;;0.88;;
30681;SDS011;17439;48.092;11.842;2023-04-24T13:50:39;1.40;;;0.80;;
30681;SDS011;17439;48.092;11.842;2023-04-24T13:53:05;2.58;;;0.90;;
30681;SDS011;17439;48.092;11.842;2023-04-24T13:55:32;0.73;;;0.60;;
30681;SDS011;17439;48.092;11.842;2023-04-24T13:57:58;1.17;;;0.80;;
30681;SDS011;17439;48.092;11.842;2023-04-24T14:00:25;1.52;;;0.70;;
30681;SDS011;17439;48.092;11.842;2023-04-24T14:02:52;0.98;;;0.75;;
30681;SDS011;17439;48.092;11.842;2023-04-24T14:05:19;2.67;;;0.85;;
30681;SDS011;17439;48.092;11.842;2023-04-24T14:07:45;5.32;;;0.68;;
30681;SDS011;17439;48.092;11.842;2023-04-24T14:10:12;3.58;;;1.00;;
30681;SDS011;17439;48.092;11.842;2023-04-24T14:12:39;2.13;;;0.93;;
30681;SDS011;17439;48.092;11.842;2023-04-24T14:15:06;3.03;;;1.08;;
30681;SDS011;17439;48.092;11.842;2023-04-24T14:17:33;1.53;;;0.80;;
30681;SDS011;17439;48.092;11.842;2023-04-24T14:20:00;2.15;;;0.95;;
30681;SDS011;17439;48.092;11.842;2023-04-24T14:22:27;2.47;;;0.70;;
30681;SDS011;17439;48.092;11.842;2023-04-24T14:24:53;3.65;;;0.65;;
30681;SDS011;17439;48.092;11.842;2023-04-24T14:27:20;1.50;;;0.80;;
30681;SDS011;17439;48.092;11.842;2023-04-24T14:29:47;2.38;;;0.82;;
30681;SDS011;17439;48.092;11.842;2023-04-24T14:32:13;2.28;;;1.20;;
30681;SDS011;17439;48.092;11.842;2023-04-24T14:34:40;1.38;;;0.90;;
30681;SDS011;17439;48.092;11.842;2023-04-24T14:37:07;2.63;;;0.82;;
30681;SDS011;17439;48.092;11.842;2023-04-24T14:39:34;1.40;;;0.77;;
30681;SDS011;17439;48.092;11.842;2023-04-24T14:42:00;0.80;;;0.60;;
30681;SDS011;17439;48.092;11.842;2023-04-24T14:44:27;1.30;;;1.05;;
30681;SDS011;17439;48.092;11.842;2023-04-24T14:46:54;1.20;;;0.95;;
30681;SDS011;17439;48.092;11.842;2023-04-24T14:49:21;1.75;;;0.85;;
30681;SDS011;17439;48.092;11.842;2023-04-24T14:51:47;2.08;;;1.00;;
30681;SDS011;17439;48.092;11.842;2023-04-24T14:54:14;1.00;;;0.80;;
30681;SDS011;17439;48.092;11.842;2023-04-24T14:56:40;1.10;;;0.80;;
30681;SDS011;17439;48.092;11.842;2023-04-24T14:59:07;3.85;;;1.08;;
30681;SDS011;17439;48.092;11.842;2023-04-24T15:01:34;3.90;;;1.00;;
30681;SDS011;17439;48.092;11.842;2023-04-24T15:04:01;6.53;;;1.02;;
30681;SDS011;17439;48.092;11.842;2023-04-24T15:06:29;2.40;;;0.98;;
30681;SDS011;17439;48.092;11.842;2023-04-24T15:08:56;1.25;;;0.80;;
30681;SDS011;17439;48.092;11.842;2023-04-24T15:11:23;8.95;;;3.03;;
30681;SDS011;17439;48.092;11.842;2023-04-24T15:13:49;5.18;;;1.70;;
30681;SDS011;17439;48.092;11.842;2023-04-24T15:16:16;2.70;;;1.38;;
30681;SDS011;17439;48.092;11.842;2023-04-24T15:18:43;5.45;;;3.00;;